マカオ の空港の天気 - METARとTAF

マカオ国際空港 ( VMMC / MFM ) - マカオ タイパ島
飛行場実況気象(Metar)
観測時間08/18 10:30 CST (08/18 02:30 UTC)
風向・風速東北東 2m/s
視程10km以上
天気現象
少しの雲 雲底高度 610m
気温31℃
湿度79%
気圧1011hPa
METARVMMC 180230Z 06004KT 310V100 9999 FEW020 31/27 Q1011 NOSIG
過去の天気等 Google飛行場航空写真 Wunderground天気予報

過去48時間のMETAR

飛行場予報(TAF)
発表時間: 8/18 07:00 CST (8/17 23:00 UTC)
予報対象時間: 18日8時 CST ~ 19日14時 CST
風向・風速不定 2m/s
視程10km以上
少しの雲 雲底高度 610m
18日11時 CST ~ 18日14時 CST に徐々に
風向・風速南南東 5m/s
19日5時 CST ~ 19日12時 CST に一時的に
風向・風速不定 2m/s
TAF VMMC 172300Z 1800/1906 VRB03KT 9999 FEW020
BECMG 1803/1806 16010KT
TEMPO 1821/1904 VRB03KT